Terminal Aerodrome Forecast
Issued by NWS Boston, MA

Home | Current Version | Previous Version | Text Only | Print | Product List | Glossary On
Versions: 1 2 3 4 5 6 7 8 9 10 11 12 13 14 15 16 17 18 19 20 21 22 23 24 25 26 27 28 29 30 31 32 33 34 35 36 37 38 39 40 41 42 43 44 45
000
FTUS41 KBOX 130540
TAFBDL
TAF
KBDL 130540Z 1306/1412 24004KT P6SM BKN080
     FM131000 26004KT P6SM BKN060
     FM131300 32009KT P6SM BKN040
     FM131400 32014G23KT P6SM BKN040
     FM131600 32016G32KT P6SM BKN040
     FM131900 31019G36KT P6SM SCT040
     FM140600 31011G37KT P6SM FEW040
     FM140700 31011G35KT P6SM FEW250=

USA.gov is the U.S. government's official web portal to all federal, state and local government web resources and services.